Time;durP1;ratioP1;P1;durP2;ratioP2;P2;SDS_P1;SDS_P2;PMS_P1;PMS_P2;Temp;Humidity;BMP_temperature;BMP_pressure;BME280_temperature;BME280_humidity;BME280_pressure;Samples;Min_cycle;Max_cycle;Signal;HPM_P1;HPM_P2
2022/08/18 00:01:41;;;;;;;;;;;19.90;99.90;;;;;;5029710;28;19925;-84
2022/08/18 00:04:10;;;;;;;;;;;19.90;99.90;;;;;;5014917;28;19928;-84
2022/08/18 00:06:57;;;;;;;;;;;19.90;99.90;;;;;;5047855;28;19944;-84
2022/08/18 00:09:25;;;;;;;;;;;19.90;99.90;;;;;;5047513;28;20466;-84
2022/08/18 00:12:00;;;;;;;;;;;19.60;99.90;;;;;;5031861;28;19924;-85
2022/08/18 00:14:27;;;;;;;;;;;19.90;99.90;;;;;;5030403;28;19924;-83
2022/08/18 00:16:55;;;;;;;;;;;19.80;99.90;;;;;;5033183;28;20681;-84
2022/08/18 00:19:24;;;;;;;;;;;19.80;99.90;;;;;;5049285;28;19932;-84
2022/08/18 00:22:14;;;;;;;;;;;19.80;99.90;;;;;;5023496;28;19925;-85
2022/08/18 00:24:46;;;;;;;;;;;19.80;99.90;;;;;;5015932;28;19925;-85
2022/08/18 00:27:18;;;;;;;;;;;19.80;99.90;;;;;;5051327;28;20324;-86
2022/08/18 00:29:48;;;;;;;;;;;19.80;99.90;;;;;;5023428;28;19924;-85
2022/08/18 00:32:18;;;;;;;;;;;19.90;99.90;;;;;;5052551;28;19925;-86
2022/08/18 00:34:45;;;;;;;;;;;19.80;99.90;;;;;;5018722;28;20089;-86
2022/08/18 00:37:13;;;;;;;;;;;19.70;99.90;;;;;;5036660;28;19928;-84
2022/08/18 00:39:40;;;;;;;;;;;19.70;99.90;;;;;;5051416;28;19932;-84
2022/08/18 00:42:17;;;;;;;;;;;19.70;99.90;;;;;;5022843;28;19924;-83
2022/08/18 00:45:03;;;;;;;;;;;19.70;99.90;;;;;;5051955;28;19925;-83
2022/08/18 00:47:31;;;;;;;;;;;19.70;99.90;;;;;;5041969;28;19925;-83
2022/08/18 00:50:12;;;;;;;;;;;19.70;99.90;;;;;;5052527;28;19975;-84
2022/08/18 00:52:45;;;;;;;;;;;19.70;99.90;;;;;;5052128;28;19929;-85
2022/08/18 00:55:13;;;;;;;;;;;19.70;99.90;;;;;;5036972;28;19925;-84
2022/08/18 00:57:42;;;;;;;;;;;19.70;99.90;;;;;;5022815;28;19929;-83
2022/08/18 01:00:13;;;;;;;;;;;19.70;99.90;;;;;;5044449;28;20709;-84
2022/08/18 01:02:45;;;;;;;;;;;19.70;99.90;;;;;;5054839;28;19924;-85
2022/08/18 01:05:16;;;;;;;;;;;19.70;99.90;;;;;;5037736;28;19932;-85
2022/08/18 01:07:45;;;;;;;;;;;19.70;99.90;;;;;;5020721;28;19924;-84
2022/08/18 01:10:17;;;;;;;;;;;19.70;99.90;;;;;;5039283;28;19936;-87
2022/08/18 01:12:47;;;;;;;;;;;19.70;99.90;;;;;;5041357;28;20082;-87
2022/08/18 01:15:15;;;;;;;;;;;19.70;99.90;;;;;;5058942;28;20236;-85
2022/08/18 01:23:30;;;;;;;;;;;19.70;99.90;;;;;;5062354;28;19929;-84
2022/08/18 01:26:02;;;;;;;;;;;19.70;99.90;;;;;;5056330;28;19932;-84
2022/08/18 01:28:33;;;;;;;;;;;19.70;99.90;;;;;;5057414;28;19925;-84
2022/08/18 01:31:00;;;;;;;;;;;19.60;99.90;;;;;;5055706;28;20292;-85
2022/08/18 01:33:33;;;;;;;;;;;19.60;99.90;;;;;;5055237;28;19936;-85
2022/08/18 01:36:03;;;;;;;;;;;19.60;99.90;;;;;;5037665;28;19929;-83
2022/08/18 01:38:31;;;;;;;;;;;19.50;99.90;;;;;;5042735;28;19936;-84
2022/08/18 01:40:58;;;;;;;;;;;19.50;99.90;;;;;;5018186;28;19924;-86
2022/08/18 01:43:46;;;;;;;;;;;19.50;99.90;;;;;;5033170;28;19929;-85
2022/08/18 01:46:18;;;;;;;;;;;19.50;99.90;;;;;;5054612;28;19929;-83
2022/08/18 01:48:47;;;;;;;;;;;19.50;99.90;;;;;;5015668;28;19940;-83
2022/08/18 01:51:18;;;;;;;;;;;19.50;99.90;;;;;;5028470;28;19936;-83
2022/08/18 01:54:10;;;;;;;;;;;19.50;99.90;;;;;;5053689;28;19924;-84
2022/08/18 01:56:39;;;;;;;;;;;19.50;99.90;;;;;;5053705;28;19947;-83
2022/08/18 01:59:12;;;;;;;;;;;19.40;99.90;;;;;;5039406;28;19932;-85
2022/08/18 02:01:42;;;;;;;;;;;19.40;99.90;;;;;;5036216;28;19929;-86
2022/08/18 02:04:17;;;;;;;;;;;19.30;99.90;;;;;;5055026;28;19939;-84
2022/08/18 02:07:06;;;;;;;;;;;19.30;99.90;;;;;;5040699;28;19952;-83
2022/08/18 02:09:33;;;;;;;;;;;19.30;99.90;;;;;;5037318;28;19924;-84
2022/08/18 02:12:01;;;;;;;;;;;19.20;99.90;;;;;;5037460;28;19932;-84
2022/08/18 02:14:28;;;;;;;;;;;19.20;99.90;;;;;;5054672;28;19928;-84
2022/08/18 02:16:58;;;;;;;;;;;19.20;99.90;;;;;;5037039;28;19925;-85
2022/08/18 02:19:33;;;;;;;;;;;19.20;99.90;;;;;;5020625;28;20380;-85
2022/08/18 02:22:02;;;;;;;;;;;19.30;99.90;;;;;;5017244;28;19929;-86
2022/08/18 02:24:30;;;;;;;;;;;19.30;99.90;;;;;;5038036;28;19935;-86
2022/08/18 02:26:57;;;;;;;;;;;19.30;99.90;;;;;;5021618;28;20007;-85
2022/08/18 02:29:25;;;;;;;;;;;19.30;99.90;;;;;;5024108;28;19933;-83
2022/08/18 02:31:53;;;;;;;;;;;19.30;99.90;;;;;;5040812;28;19931;-83
2022/08/18 02:34:20;;;;;;;;;;;19.30;99.90;;;;;;5035076;28;19939;-84
2022/08/18 02:36:48;;;;;;;;;;;19.30;99.90;;;;;;5033157;28;19936;-83
2022/08/18 02:39:16;;;;;;;;;;;19.40;99.90;;;;;;5051599;28;19935;-83
2022/08/18 02:41:43;;;;;;;;;;;19.40;99.90;;;;;;5043789;28;19925;-84
2022/08/18 02:44:11;;;;;;;;;;;19.40;99.90;;;;;;5043219;28;19931;-83
2022/08/18 02:46:38;;;;;;;;;;;19.50;99.90;;;;;;5033055;28;19928;-84
2022/08/18 02:49:06;;;;;;;;;;;19.50;99.90;;;;;;5051584;28;19932;-83
2022/08/18 02:51:34;;;;;;;;;;;19.40;99.90;;;;;;5033831;28;19929;-82
2022/08/18 02:54:02;;;;;;;;;;;19.50;99.90;;;;;;5034241;28;19924;-84
2022/08/18 02:56:30;;;;;;;;;;;19.50;99.90;;;;;;5017242;28;20285;-83
2022/08/18 02:59:10;;;;;;;;;;;19.60;99.90;;;;;;5032993;28;19929;-82
2022/08/18 03:01:38;;;;;;;;;;;19.50;99.90;;;;;;5033727;28;19925;-83
2022/08/18 03:04:07;;;;;;;;;;;19.50;99.90;;;;;;5033085;28;19932;-83
2022/08/18 03:06:35;;;;;;;;;;;19.60;99.90;;;;;;5035290;28;19929;-83
2022/08/18 03:09:04;;;;;;;;;;;19.50;99.90;;;;;;5050471;28;19932;-83
2022/08/18 03:11:31;;;;;;;;;;;19.60;99.90;;;;;;5032672;28;19999;-83
2022/08/18 03:14:00;;;;;;;;;;;19.60;99.90;;;;;;5051723;28;20269;-84
2022/08/18 03:16:31;;;;;;;;;;;19.60;99.90;;;;;;5048975;28;20483;-83
2022/08/18 03:19:00;;;;;;;;;;;19.60;99.90;;;;;;5032552;28;20468;-84
2022/08/18 03:21:30;;;;;;;;;;;19.60;99.90;;;;;;5050940;28;19929;-86
2022/08/18 03:23:58;;;;;;;;;;;19.60;99.90;;;;;;5017513;28;20411;-84
2022/08/18 03:26:29;;;;;;;;;;;19.60;99.90;;;;;;5030483;28;19924;-83
2022/08/18 03:28:59;;;;;;;;;;;19.60;99.90;;;;;;5033087;28;19932;-84
2022/08/18 03:31:28;;;;;;;;;;;19.70;99.90;;;;;;5050429;28;19932;-84
2022/08/18 03:33:56;;;;;;;;;;;19.60;99.90;;;;;;5007152;28;19933;-85
2022/08/18 03:36:28;;;;;;;;;;;19.60;99.90;;;;;;5045404;28;20035;-84
2022/08/18 03:38:55;;;;;;;;;;;19.60;99.90;;;;;;5034097;28;19940;-84
2022/08/18 03:41:25;;;;;;;;;;;19.60;99.90;;;;;;5034197;28;19939;-84
2022/08/18 03:44:13;;;;;;;;;;;19.60;99.90;;;;;;5028228;28;19929;-83
2022/08/18 03:46:42;;;;;;;;;;;19.60;99.90;;;;;;5030884;28;19925;-83
2022/08/18 03:49:10;;;;;;;;;;;19.60;99.90;;;;;;5047064;28;19929;-83
2022/08/18 03:51:38;;;;;;;;;;;19.70;99.90;;;;;;5048492;28;19925;-84
2022/08/18 03:54:05;;;;;;;;;;;19.60;99.90;;;;;;5059016;28;19936;-84
2022/08/18 03:56:35;;;;;;;;;;;19.70;99.90;;;;;;5051016;28;19925;-84
2022/08/18 03:59:04;;;;;;;;;;;19.70;99.90;;;;;;5047272;28;19924;-83
2022/08/18 04:01:33;;;;;;;;;;;19.70;99.90;;;;;;5035164;28;19924;-84
2022/08/18 04:04:03;;;;;;;;;;;19.70;99.90;;;;;;5034703;28;19928;-84
2022/08/18 04:06:32;;;;;;;;;;;19.70;99.90;;;;;;5033821;28;19929;-83
2022/08/18 04:09:00;;;;;;;;;;;19.70;99.90;;;;;;5052483;28;20277;-86
2022/08/18 04:11:29;;;;;;;;;;;19.70;99.90;;;;;;5037556;28;19925;-85
2022/08/18 04:14:02;;;;;;;;;;;19.70;99.90;;;;;;5058862;28;19925;-86
2022/08/18 04:16:37;;;;;;;;;;;19.70;99.90;;;;;;5060449;28;20336;-85
2022/08/18 04:19:04;;;;;;;;;;;19.70;99.90;;;;;;5062100;28;19932;-86
2022/08/18 04:21:34;;;;;;;;;;;19.60;99.90;;;;;;5044507;28;20278;-83
2022/08/18 04:24:06;;;;;;;;;;;19.60;99.90;;;;;;5062433;28;19925;-85
2022/08/18 04:26:35;;;;;;;;;;;19.60;99.90;;;;;;5044927;28;20292;-84
2022/08/18 04:29:03;;;;;;;;;;;19.50;99.90;;;;;;5043325;28;19924;-84
2022/08/18 04:31:31;;;;;;;;;;;19.50;99.90;;;;;;5042766;28;19925;-84
2022/08/18 04:33:59;;;;;;;;;;;19.50;99.90;;;;;;5042943;28;19932;-85
2022/08/18 04:36:27;;;;;;;;;;;19.50;99.90;;;;;;5060918;28;19925;-85
2022/08/18 04:38:55;;;;;;;;;;;19.50;99.90;;;;;;5043906;28;19929;-85
2022/08/18 04:41:25;;;;;;;;;;;19.50;99.90;;;;;;5046224;28;19925;-82
2022/08/18 04:43:54;;;;;;;;;;;19.70;99.90;;;;;;5060209;28;19931;-86
2022/08/18 04:46:21;;;;;;;;;;;19.50;99.90;;;;;;5042395;28;19932;-86
2022/08/18 04:48:51;;;;;;;;;;;19.50;99.90;;;;;;5060308;28;19935;-86
2022/08/18 04:51:19;;;;;;;;;;;19.50;99.90;;;;;;5058963;28;19931;-85
2022/08/18 04:54:07;;;;;;;;;;;19.50;99.90;;;;;;5036505;28;20714;-85
2022/08/18 04:56:38;;;;;;;;;;;19.50;99.90;;;;;;5041645;28;19929;-87
2022/08/18 04:59:10;;;;;;;;;;;19.50;99.90;;;;;;5039221;28;20343;-84
2022/08/18 05:01:39;;;;;;;;;;;19.50;99.90;;;;;;5045656;28;20372;-84
2022/08/18 05:04:12;;;;;;;;;;;19.50;99.90;;;;;;5057110;28;19928;-85
2022/08/18 05:06:41;;;;;;;;;;;19.50;99.90;;;;;;5030996;28;20400;-84
2022/08/18 05:09:10;;;;;;;;;;;19.50;99.90;;;;;;5038558;28;20349;-83
2022/08/18 05:11:38;;;;;;;;;;;19.50;99.90;;;;;;5056424;28;19929;-86
2022/08/18 05:14:07;;;;;;;;;;;19.50;99.90;;;;;;5041036;28;20403;-82
2022/08/18 05:16:35;;;;;;;;;;;19.50;99.90;;;;;;5040790;28;19925;-84
2022/08/18 05:19:18;;;;;;;;;;;19.20;99.90;;;;;;5056057;28;19929;-84
2022/08/18 05:21:49;;;;;;;;;;;19.50;99.90;;;;;;5055485;28;19925;-83
2022/08/18 05:24:19;;;;;;;;;;;19.50;99.90;;;;;;5054748;28;19925;-85
2022/08/18 05:26:47;;;;;;;;;;;19.50;99.90;;;;;;5032063;28;19936;-84
2022/08/18 05:29:15;;;;;;;;;;;19.50;99.90;;;;;;5047664;28;19929;-83
2022/08/18 05:31:47;;;;;;;;;;;19.50;99.90;;;;;;5035791;28;20463;-86
2022/08/18 05:34:15;;;;;;;;;;;19.50;99.90;;;;;;5052922;28;19925;-85
2022/08/18 05:36:49;;;;;;;;;;;19.50;99.90;;;;;;5056614;28;20189;-84
2022/08/18 05:39:16;;;;;;;;;;;19.50;99.90;;;;;;5037234;28;20721;-84
2022/08/18 05:41:47;;;;;;;;;;;19.50;99.90;;;;;;5053282;28;20433;-84
2022/08/18 05:44:18;;;;;;;;;;;19.50;99.90;;;;;;5035594;28;19924;-83
2022/08/18 05:46:53;;;;;;;;;;;19.50;99.90;;;;;;5050402;28;19924;-84
2022/08/18 05:49:23;;;;;;;;;;;19.40;99.90;;;;;;5041603;28;19932;-84
2022/08/18 05:52:00;;;;;;;;;;;19.40;99.90;;;;;;5033114;28;19929;-85
2022/08/18 05:57:20;;;;;;;;;;;19.40;99.90;;;;;;5054921;28;20000;-84
2022/08/18 05:59:51;;;;;;;;;;;19.50;99.90;;;;;;5038319;28;19929;-85
2022/08/18 06:02:30;;;;;;;;;;;19.50;99.90;;;;;;5054336;28;19925;-86
2022/08/18 06:05:18;;;;;;;;;;;19.50;99.90;;;;;;5038620;28;19925;-86
2022/08/18 06:07:50;;;;;;;;;;;19.50;99.90;;;;;;5056499;28;19929;-83
2022/08/18 06:10:17;;;;;;;;;;;19.60;99.90;;;;;;5056200;28;19928;-85
2022/08/18 06:12:48;;;;;;;;;;;19.60;99.90;;;;;;5053126;28;19935;-84
2022/08/18 06:15:39;;;;;;;;;;;19.60;99.90;;;;;;5053391;28;19939;-83
2022/08/18 06:18:13;;;;;;;;;;;19.60;99.90;;;;;;5034920;28;19929;-86
2022/08/18 06:20:53;;;;;;;;;;;19.70;99.90;;;;;;5022515;28;19936;-83
2022/08/18 06:23:27;;;;;;;;;;;19.70;99.90;;;;;;5052624;28;19940;-85
2022/08/18 06:26:00;;;;;;;;;;;19.70;99.90;;;;;;5029923;28;19940;-84
2022/08/18 06:28:40;;;;;;;;;;;19.70;99.90;;;;;;5028214;28;19925;-85
2022/08/18 06:31:39;;;;;;;;;;;19.80;99.90;;;;;;5015974;28;19925;-84
2022/08/18 06:34:10;;;;;;;;;;;19.80;99.90;;;;;;5014846;28;19951;-84
2022/08/18 06:36:55;;;;;;;;;;;19.80;99.90;;;;;;5022612;28;19925;-86
2022/08/18 06:39:43;;;;;;;;;;;19.80;99.90;;;;;;5050806;28;19924;-85
2022/08/18 06:42:11;;;;;;;;;;;19.80;99.90;;;;;;5058629;28;19929;-87
2022/08/18 06:44:44;;;;;;;;;;;19.80;99.90;;;;;;5020425;28;19929;-86
2022/08/18 06:47:15;;;;;;;;;;;19.90;99.90;;;;;;5043699;28;19929;-86
2022/08/18 06:49:42;;;;;;;;;;;19.90;99.90;;;;;;5040469;28;20308;-86
2022/08/18 06:52:20;;;;;;;;;;;19.90;99.90;;;;;;5045568;28;19928;-86
2022/08/18 06:54:48;;;;;;;;;;;19.90;99.90;;;;;;5023949;28;19933;-86
2022/08/18 06:57:22;;;;;;;;;;;19.90;99.90;;;;;;5035925;28;19924;-85
2022/08/18 06:59:54;;;;;;;;;;;19.90;99.90;;;;;;5034939;28;19931;-86
2022/08/18 07:02:24;;;;;;;;;;;20.00;99.90;;;;;;5050267;28;19925;-87
2022/08/18 07:05:00;;;;;;;;;;;20.10;99.90;;;;;;5031050;28;19955;-87
2022/08/18 07:07:35;;;;;;;;;;;20.10;99.90;;;;;;5048653;28;19935;-86
2022/08/18 07:10:17;;;;;;;;;;;20.10;99.90;;;;;;5045204;28;19929;-86
2022/08/18 07:12:44;;;;;;;;;;;20.10;99.90;;;;;;5048158;28;19924;-86
2022/08/18 07:15:12;;;;;;;;;;;20.40;99.90;;;;;;5047465;28;19925;-87
2022/08/18 07:17:39;;;;;;;;;;;20.20;99.90;;;;;;5029228;28;19924;-85
2022/08/18 07:20:22;;;;;;;;;;;20.30;99.90;;;;;;5046845;28;20300;-84
2022/08/18 07:22:52;;;;;;;;;;;20.40;99.90;;;;;;5046431;28;20384;-84
2022/08/18 07:25:21;;;;;;;;;;;20.40;99.90;;;;;;5029042;28;19929;-84
2022/08/18 07:27:51;;;;;;;;;;;20.50;99.90;;;;;;5029700;28;19928;-84
2022/08/18 07:30:19;;;;;;;;;;;20.50;99.90;;;;;;5047906;28;19935;-84
2022/08/18 07:32:49;;;;;;;;;;;20.60;99.90;;;;;;5048016;28;19928;-85
2022/08/18 07:35:18;;;;;;;;;;;20.50;99.90;;;;;;5021492;28;19928;-83
2022/08/18 07:38:24;;;;;;;;;;;20.70;99.90;;;;;;5046707;28;19943;-86
2022/08/18 07:41:13;;;;;;;;;;;20.80;99.90;;;;;;4977191;28;20156;-85
2022/08/18 07:43:52;;;;;;;;;;;20.90;99.90;;;;;;4984751;28;19938;-84
2022/08/18 07:46:28;;;;;;;;;;;20.90;99.90;;;;;;4998736;28;19932;-84
2022/08/18 07:48:57;;;;;;;;;;;21.00;99.90;;;;;;5024944;28;20324;-85
2022/08/18 07:51:37;;;;;;;;;;;21.00;99.90;;;;;;5012032;28;19929;-86
2022/08/18 07:54:09;;;;;;;;;;;21.10;99.90;;;;;;5044808;28;19936;-86
2022/08/18 07:57:09;;;;;;;;;;;21.20;99.90;;;;;;5046676;28;19929;-86
2022/08/18 07:59:52;;;;;;;;;;;21.20;99.90;;;;;;5019410;28;19925;-85
2022/08/18 08:02:28;;;;;;;;;;;21.30;99.90;;;;;;5047010;28;19928;-85
2022/08/18 08:04:56;;;;;;;;;;;21.30;99.90;;;;;;5008324;28;20381;-85
2022/08/18 08:07:28;;;;;;;;;;;21.40;99.90;;;;;;5029383;28;20412;-86
2022/08/18 08:10:18;;;;;;;;;;;21.50;99.90;;;;;;5008297;28;19936;-84
2022/08/18 08:12:51;;;;;;;;;;;21.40;99.90;;;;;;5029558;28;19925;-85
2022/08/18 08:15:34;;;;;;;;;;;21.60;99.90;;;;;;5023708;28;20301;-83
2022/08/18 08:18:15;;;;;;;;;;;21.70;99.90;;;;;;5011799;28;19933;-84
2022/08/18 08:21:03;;;;;;;;;;;21.70;99.90;;;;;;5014113;28;19928;-84
2022/08/18 08:23:49;;;;;;;;;;;21.80;99.90;;;;;;5020530;28;19925;-84
2022/08/18 08:26:23;;;;;;;;;;;21.80;99.90;;;;;;5045223;28;20307;-86
2022/08/18 08:28:57;;;;;;;;;;;21.80;99.90;;;;;;5023764;28;19932;-85
2022/08/18 08:31:36;;;;;;;;;;;21.90;99.90;;;;;;5043555;28;19932;-86
2022/08/18 08:34:17;;;;;;;;;;;21.90;99.90;;;;;;5024204;28;19932;-87
2022/08/18 08:36:45;;;;;;;;;;;22.10;99.90;;;;;;5025592;28;19932;-87
2022/08/18 08:39:13;;;;;;;;;;;22.20;99.90;;;;;;5008254;28;19937;-86
2022/08/18 08:41:56;;;;;;;;;;;22.20;99.90;;;;;;5024337;28;19929;-86
2022/08/18 08:44:48;;;;;;;;;;;22.20;99.90;;;;;;5026263;28;19936;-88
2022/08/18 08:47:31;;;;;;;;;;;22.20;99.90;;;;;;5042341;28;19929;-85
2022/08/18 08:50:06;;;;;;;;;;;22.20;99.90;;;;;;4992925;28;19933;-87
2022/08/18 08:52:40;;;;;;;;;;;22.30;99.90;;;;;;5025239;28;19949;-87
2022/08/18 08:55:12;;;;;;;;;;;22.30;99.90;;;;;;5039528;28;19933;-87
2022/08/18 08:57:50;;;;;;;;;;;22.40;99.90;;;;;;5021479;28;19936;-85
2022/08/18 09:00:18;;;;;;;;;;;22.40;99.90;;;;;;5024883;28;19932;-86
2022/08/18 09:02:53;;;;;;;;;;;22.50;99.90;;;;;;5031206;28;20305;-86
2022/08/18 09:05:21;;;;;;;;;;;22.60;99.90;;;;;;5028594;28;19951;-83
2022/08/18 09:07:49;;;;;;;;;;;22.70;99.90;;;;;;5044496;28;19932;-87
2022/08/18 09:10:33;;;;;;;;;;;22.80;99.90;;;;;;5044892;28;19936;-86
2022/08/18 09:13:20;;;;;;;;;;;22.80;99.90;;;;;;5048170;28;20629;-85
2022/08/18 09:16:14;;;;;;;;;;;23.10;99.90;;;;;;5046029;28;19929;-85
2022/08/18 09:18:44;;;;;;;;;;;23.00;99.90;;;;;;5046492;28;19928;-85
2022/08/18 09:21:31;;;;;;;;;;;23.10;99.90;;;;;;5030312;28;19932;-86
2022/08/18 09:24:17;;;;;;;;;;;23.20;99.90;;;;;;5048077;28;19926;-86
2022/08/18 09:27:14;;;;;;;;;;;23.20;98.90;;;;;;5051567;28;19925;-86
2022/08/18 09:29:48;;;;;;;;;;;23.30;99.40;;;;;;4999937;28;19925;-85
2022/08/18 09:32:19;;;;;;;;;;;23.40;99.40;;;;;;5016508;28;19932;-86
2022/08/18 09:34:56;;;;;;;;;;;23.40;99.10;;;;;;5045938;28;19932;-87
2022/08/18 09:37:26;;;;;;;;;;;23.50;98.60;;;;;;5047892;28;19932;-85
2022/08/18 09:43:04;;;;;;;;;;;23.70;98.20;;;;;;5046207;28;19925;-84
2022/08/18 09:45:40;;;;;;;;;;;23.90;98.10;;;;;;5043050;28;19925;-85
2022/08/18 09:48:07;;;;;;;;;;;24.10;97.60;;;;;;5027375;28;19925;-86
2022/08/18 09:51:00;;;;;;;;;;;24.30;97.30;;;;;;5046796;28;19925;-87
2022/08/18 09:53:36;;;;;;;;;;;24.40;97.20;;;;;;5045308;28;19929;-89
2022/08/18 09:56:05;;;;;;;;;;;24.50;96.50;;;;;;5042658;28;20296;-89
2022/08/18 09:58:47;;;;;;;;;;;24.50;96.40;;;;;;5028474;28;20293;-87
2022/08/18 10:01:22;;;;;;;;;;;24.40;96.40;;;;;;5049625;28;20379;-88
2022/08/18 10:04:08;;;;;;;;;;;24.20;96.00;;;;;;5051607;28;20015;-87
2022/08/18 10:06:39;;;;;;;;;;;23.90;96.10;;;;;;5028562;28;20079;-87
2022/08/18 10:09:26;;;;;;;;;;;23.60;96.60;;;;;;5014223;28;19929;-86
2022/08/18 10:12:20;;;;;;;;;;;23.40;96.70;;;;;;5042439;28;20422;-86
2022/08/18 10:15:07;;;;;;;;;;;23.40;97.10;;;;;;5025879;28;19933;-86
2022/08/18 10:17:38;;;;;;;;;;;23.20;97.20;;;;;;5026927;28;19940;-86
2022/08/18 10:20:27;;;;;;;;;;;23.20;97.10;;;;;;5044159;28;19925;-86
2022/08/18 10:22:55;;;;;;;;;;;23.20;97.40;;;;;;5043613;28;19940;-83
2022/08/18 10:25:38;;;;;;;;;;;23.10;97.50;;;;;;5046914;28;19925;-89
2022/08/18 10:28:09;;;;;;;;;;;23.10;97.50;;;;;;5031872;28;19932;-88
2022/08/18 10:30:48;;;;;;;;;;;23.20;97.60;;;;;;5027538;28;19925;-87
2022/08/18 10:33:48;;;;;;;;;;;23.20;97.30;;;;;;5044988;28;19929;-89
2022/08/18 10:36:45;;;;;;;;;;;23.20;97.20;;;;;;5035331;28;19933;-88
2022/08/18 10:39:16;;;;;;;;;;;23.30;97.40;;;;;;5038000;28;19932;-88
2022/08/18 10:41:55;;;;;;;;;;;23.40;97.20;;;;;;5043884;28;19933;-88
2022/08/18 10:44:24;;;;;;;;;;;23.60;96.80;;;;;;5044840;28;20131;-86
2022/08/18 10:46:58;;;;;;;;;;;23.70;96.60;;;;;;5046813;28;20397;-85
2022/08/18 10:49:27;;;;;;;;;;;23.80;96.60;;;;;;5028911;28;19996;-86
2022/08/18 10:52:07;;;;;;;;;;;23.90;96.50;;;;;;5012677;28;19935;-87
2022/08/18 10:54:53;;;;;;;;;;;23.90;96.30;;;;;;5027213;28;20023;-86
2022/08/18 10:57:40;;;;;;;;;;;23.90;95.90;;;;;;5029452;28;19939;-91
2022/08/18 11:00:15;;;;;;;;;;;24.00;95.70;;;;;;5028810;28;19929;-90
2022/08/18 11:03:03;;;;;;;;;;;24.10;95.80;;;;;;5041964;28;19925;-91
2022/08/18 11:05:59;;;;;;;;;;;24.20;95.60;;;;;;5050129;28;19940;-91
2022/08/18 11:08:27;;;;;;;;;;;24.30;95.00;;;;;;5028135;28;20147;-85
2022/08/18 11:11:06;;;;;;;;;;;24.60;94.40;;;;;;5019244;28;20099;-88
2022/08/18 11:13:53;;;;;;;;;;;24.90;93.20;;;;;;5037455;28;19936;-89
2022/08/18 11:16:21;;;;;;;;;;;25.20;93.30;;;;;;5051995;28;19945;-87
2022/08/18 11:19:02;;;;;;;;;;;25.30;92.70;;;;;;5046066;28;20522;-91
2022/08/18 11:21:33;;;;;;;;;;;25.40;92.50;;;;;;5028396;28;19932;-91
2022/08/18 11:24:26;;;;;;;;;;;25.40;92.80;;;;;;5042795;28;19936;-91
2022/08/18 11:26:56;;;;;;;;;;;25.30;92.70;;;;;;5044014;28;19933;-91
2022/08/18 11:29:25;;;;;;;;;;;25.20;92.60;;;;;;5049081;28;19933;-90
2022/08/18 11:32:11;;;;;;;;;;;25.00;92.70;;;;;;5043652;28;19940;-87
2022/08/18 11:34:39;;;;;;;;;;;25.00;93.00;;;;;;5042623;28;19944;-90
2022/08/18 11:37:44;;;;;;;;;;;25.20;93.20;;;;;;5022864;28;20384;-89
2022/08/18 11:40:30;;;;;;;;;;;25.40;93.00;;;;;;5029204;28;20235;-90
2022/08/18 11:43:22;;;;;;;;;;;25.80;92.40;;;;;;5043722;28;19940;-90
2022/08/18 11:45:55;;;;;;;;;;;26.10;91.90;;;;;;5041675;28;19925;-90
2022/08/18 11:48:23;;;;;;;;;;;26.30;91.70;;;;;;5030629;28;19944;-89
2022/08/18 11:51:17;;;;;;;;;;;26.60;91.90;;;;;;5009880;28;19932;-90
2022/08/18 11:54:11;;;;;;;;;;;26.70;91.20;;;;;;5013359;28;19936;-91
2022/08/18 11:56:39;;;;;;;;;;;26.70;91.20;;;;;;5015797;28;19933;-87
2022/08/18 11:59:35;;;;;;;;;;;26.80;90.60;;;;;;5019074;28;19928;-89
2022/08/18 12:02:24;;;;;;;;;;;26.80;90.00;;;;;;5013288;28;20004;-85
2022/08/18 12:04:55;;;;;;;;;;;26.80;90.10;;;;;;5040704;28;19928;-86
2022/08/18 12:07:28;;;;;;;;;;;26.90;89.80;;;;;;5022031;28;20336;-86
2022/08/18 12:10:11;;;;;;;;;;;27.00;90.00;;;;;;5005300;28;19936;-85
2022/08/18 12:12:48;;;;;;;;;;;27.10;88.40;;;;;;5007294;28;19929;-86
2022/08/18 12:15:18;;;;;;;;;;;27.20;88.10;;;;;;5040046;28;19936;-84
2022/08/18 12:17:51;;;;;;;;;;;27.20;88.70;;;;;;5039742;28;19936;-84
2022/08/18 12:20:20;;;;;;;;;;;27.20;88.30;;;;;;5040175;28;19952;-85
2022/08/18 12:22:49;;;;;;;;;;;27.20;89.10;;;;;;5039084;28;19928;-87
2022/08/18 12:25:18;;;;;;;;;;;27.20;87.80;;;;;;5042615;28;20320;-89
2022/08/18 12:28:06;;;;;;;;;;;27.30;88.40;;;;;;5044247;28;20018;-86
2022/08/18 12:30:37;;;;;;;;;;;27.30;88.40;;;;;;5031384;28;20376;-86
2022/08/18 12:33:08;;;;;;;;;;;27.40;88.30;;;;;;5035377;28;19965;-86
2022/08/18 12:35:39;;;;;;;;;;;27.50;87.30;;;;;;5046218;28;19931;-85
2022/08/18 12:38:11;;;;;;;;;;;27.60;87.10;;;;;;5032000;28;19932;-86
2022/08/18 12:40:42;;;;;;;;;;;27.50;85.70;;;;;;5042490;28;19943;-86
2022/08/18 12:43:10;;;;;;;;;;;27.60;86.00;;;;;;5044951;28;19936;-87
2022/08/18 12:45:37;;;;;;;;;;;27.70;86.50;;;;;;5046351;28;19935;-86
2022/08/18 12:48:06;;;;;;;;;;;27.80;85.60;;;;;;5014778;28;19925;-85
2022/08/18 12:50:34;;;;;;;;;;;27.90;85.60;;;;;;5039532;28;19925;-85
2022/08/18 12:53:23;;;;;;;;;;;28.00;85.70;;;;;;5048842;28;19924;-85
2022/08/18 12:56:06;;;;;;;;;;;28.10;84.90;;;;;;5029200;28;19924;-85
2022/08/18 12:58:37;;;;;;;;;;;28.10;85.30;;;;;;5050184;28;19929;-84
2022/08/18 13:01:07;;;;;;;;;;;28.20;84.90;;;;;;5049079;28;19929;-84
2022/08/18 13:03:34;;;;;;;;;;;28.40;84.10;;;;;;5021529;28;19932;-84
2022/08/18 13:06:03;;;;;;;;;;;28.50;83.40;;;;;;5027381;28;20388;-85
2022/08/18 13:08:32;;;;;;;;;;;30.10;84.50;;;;;;5044712;28;19947;-85
2022/08/18 13:11:09;;;;;;;;;;;28.80;84.30;;;;;;5030508;28;19933;-86
2022/08/18 13:13:50;;;;;;;;;;;28.90;83.50;;;;;;5046604;28;20312;-86
2022/08/18 13:16:24;;;;;;;;;;;29.00;83.30;;;;;;5027778;28;20316;-86
2022/08/18 13:19:06;;;;;;;;;;;28.90;82.10;;;;;;5029906;28;19933;-86
2022/08/18 13:21:37;;;;;;;;;;;28.80;83.00;;;;;;5046336;28;19935;-85
2022/08/18 13:24:08;;;;;;;;;;;28.60;82.50;;;;;;5045333;28;19940;-85
2022/08/18 13:26:37;;;;;;;;;;;28.40;82.60;;;;;;5027495;28;19929;-89
2022/08/18 13:29:08;;;;;;;;;;;28.30;83.20;;;;;;5028144;28;19944;-85
2022/08/18 13:31:37;;;;;;;;;;;28.30;83.60;;;;;;5028606;28;19936;-85
2022/08/18 13:34:06;;;;;;;;;;;28.40;83.50;;;;;;5047110;28;19940;-85
2022/08/18 13:36:44;;;;;;;;;;;28.50;83.40;;;;;;5024996;28;19933;-85
2022/08/18 13:39:16;;;;;;;;;;;28.70;81.50;;;;;;5025202;28;20724;-86
2022/08/18 13:41:44;;;;;;;;;;;27.70;81.30;;;;;;5025611;28;19929;-86
2022/08/18 13:44:14;;;;;;;;;;;29.00;82.10;;;;;;5027978;28;19936;-92
2022/08/18 13:46:48;;;;;;;;;;;29.10;80.90;;;;;;5041954;28;19929;-93
2022/08/18 13:49:32;;;;;;;;;;;29.20;81.00;;;;;;5033700;28;19944;-89
2022/08/18 13:52:05;;;;;;;;;;;29.40;79.80;;;;;;5044277;28;19929;-93
2022/08/18 13:54:54;;;;;;;;;;;29.40;78.90;;;;;;5047327;28;19939;-89
2022/08/18 13:57:27;;;;;;;;;;;29.60;79.40;;;;;;5028220;28;19940;-88
2022/08/18 14:00:03;;;;;;;;;;;29.80;79.70;;;;;;5027154;28;19940;-94
2022/08/18 14:02:32;;;;;;;;;;;30.10;78.80;;;;;;5025385;28;19925;-95
2022/08/18 14:05:03;;;;;;;;;;;30.30;78.20;;;;;;5004528;28;19925;-91
2022/08/18 14:07:35;;;;;;;;;;;29.80;76.80;;;;;;5013299;28;19933;-94
2022/08/18 14:10:07;;;;;;;;;;;30.00;76.40;;;;;;5032965;28;19931;-90
2022/08/18 14:12:43;;;;;;;;;;;27.90;76.40;;;;;;5031042;28;19943;-90
2022/08/18 14:15:14;;;;;;;;;;;30.00;77.20;;;;;;5030001;28;19913;-91
2022/08/18 14:17:47;;;;;;;;;;;29.90;76.90;;;;;;5033013;28;19931;-89
2022/08/18 14:29:15;;;;;;;;;;;29.50;77.60;;;;;;5048931;28;19936;-96
2022/08/18 14:35:54;;;;;;;;;;;29.20;78.60;;;;;;5041995;28;19917;-92
2022/08/18 14:38:42;;;;;;;;;;;29.60;78.30;;;;;;5010903;28;20293;-96
2022/08/18 14:41:25;;;;;;;;;;;29.80;78.10;;;;;;5044472;28;19925;-91
2022/08/18 14:43:55;;;;;;;;;;;29.70;77.40;;;;;;5038280;28;19966;-95
2022/08/18 14:46:46;;;;;;;;;;;29.50;77.30;;;;;;5030535;28;19929;-93
2022/08/18 14:49:21;;;;;;;;;;;29.10;77.70;;;;;;5049873;28;19948;-90
2022/08/18 14:52:00;;;;;;;;;;;28.90;78.70;;;;;;5038229;28;19919;-91
2022/08/18 14:54:30;;;;;;;;;;;28.70;79.00;;;;;;5029592;28;19936;-94
2022/08/18 14:57:08;;;;;;;;;;;29.00;79.20;;;;;;5057978;28;19925;-94
2022/08/18 14:59:37;;;;;;;;;;;29.70;78.30;;;;;;5022368;28;19955;-91
2022/08/18 15:02:08;;;;;;;;;;;30.30;76.40;;;;;;5052610;28;19935;-90
2022/08/18 15:04:41;;;;;;;;;;;30.60;75.60;;;;;;5026236;28;19931;-92
2022/08/18 15:07:50;;;;;;;;;;;30.60;75.40;;;;;;5021094;28;19932;-93
2022/08/18 15:10:24;;;;;;;;;;;30.50;75.50;;;;;;5054541;28;20257;-94
2022/08/18 15:12:56;;;;;;;;;;;30.70;74.70;;;;;;5019352;28;19925;-92
2022/08/18 15:15:31;;;;;;;;;;;30.60;75.50;;;;;;5039528;28;19925;-95
2022/08/18 15:18:19;;;;;;;;;;;30.40;76.00;;;;;;5053226;28;19925;-94
2022/08/18 15:26:47;;;;;;;;;;;29.70;76.20;;;;;;5024597;28;19932;-92
2022/08/18 15:29:26;;;;;;;;;;;29.60;77.10;;;;;;5038644;28;20612;-95